sensor_id;sensor_type;location;lat;lon;timestamp;P1;durP1;ratioP1;P2;durP2;ratioP2
30247;SDS011;17063;50.892;4.702;2022-10-17T00:02:13;8.27;;;5.13;;
30247;SDS011;17063;50.892;4.702;2022-10-17T00:04:39;6.83;;;5.23;;
30247;SDS011;17063;50.892;4.702;2022-10-17T00:07:06;9.23;;;6.13;;
30247;SDS011;17063;50.892;4.702;2022-10-17T00:09:33;7.73;;;5.30;;
30247;SDS011;17063;50.892;4.702;2022-10-17T00:11:59;11.00;;;5.33;;
30247;SDS011;17063;50.892;4.702;2022-10-17T00:14:28;9.30;;;5.23;;
30247;SDS011;17063;50.892;4.702;2022-10-17T00:16:54;8.20;;;5.43;;
30247;SDS011;17063;50.892;4.702;2022-10-17T00:19:21;7.07;;;5.53;;
30247;SDS011;17063;50.892;4.702;2022-10-17T00:21:48;7.27;;;5.27;;
30247;SDS011;17063;50.892;4.702;2022-10-17T00:24:14;7.97;;;4.93;;
30247;SDS011;17063;50.892;4.702;2022-10-17T00:26:41;6.93;;;5.00;;
30247;SDS011;17063;50.892;4.702;2022-10-17T00:29:08;6.63;;;5.30;;
30247;SDS011;17063;50.892;4.702;2022-10-17T00:31:35;11.70;;;5.53;;
30247;SDS011;17063;50.892;4.702;2022-10-17T00:34:01;7.43;;;5.63;;
30247;SDS011;17063;50.892;4.702;2022-10-17T00:36:28;8.80;;;5.70;;
30247;SDS011;17063;50.892;4.702;2022-10-17T00:38:56;11.17;;;5.87;;
30247;SDS011;17063;50.892;4.702;2022-10-17T00:41:25;9.43;;;5.97;;
30247;SDS011;17063;50.892;4.702;2022-10-17T00:44:02;8.70;;;5.53;;
30247;SDS011;17063;50.892;4.702;2022-10-17T00:46:35;6.13;;;5.20;;
30247;SDS011;17063;50.892;4.702;2022-10-17T00:49:07;9.33;;;5.60;;
30247;SDS011;17063;50.892;4.702;2022-10-17T00:51:46;12.60;;;5.70;;
30247;SDS011;17063;50.892;4.702;2022-10-17T00:54:18;8.07;;;5.40;;
30247;SDS011;17063;50.892;4.702;2022-10-17T00:56:47;14.80;;;5.20;;
30247;SDS011;17063;50.892;4.702;2022-10-17T00:59:15;6.23;;;5.20;;
30247;SDS011;17063;50.892;4.702;2022-10-17T01:01:45;6.90;;;5.00;;
30247;SDS011;17063;50.892;4.702;2022-10-17T01:04:16;7.40;;;4.80;;
30247;SDS011;17063;50.892;4.702;2022-10-17T01:06:44;9.33;;;5.40;;
30247;SDS011;17063;50.892;4.702;2022-10-17T01:09:10;8.87;;;5.37;;
30247;SDS011;17063;50.892;4.702;2022-10-17T01:14:15;7.23;;;5.40;;
30247;SDS011;17063;50.892;4.702;2022-10-17T01:16:58;8.07;;;4.90;;
30247;SDS011;17063;50.892;4.702;2022-10-17T01:19:34;6.00;;;4.43;;
30247;SDS011;17063;50.892;4.702;2022-10-17T01:25:17;6.37;;;4.90;;
30247;SDS011;17063;50.892;4.702;2022-10-17T01:28:07;5.23;;;4.73;;
30247;SDS011;17063;50.892;4.702;2022-10-17T01:30:53;7.37;;;5.07;;
30247;SDS011;17063;50.892;4.702;2022-10-17T01:33:31;7.83;;;4.53;;
30247;SDS011;17063;50.892;4.702;2022-10-17T01:38:48;7.57;;;4.80;;
30247;SDS011;17063;50.892;4.702;2022-10-17T01:41:37;8.30;;;5.00;;
30247;SDS011;17063;50.892;4.702;2022-10-17T01:44:09;9.53;;;5.23;;
30247;SDS011;17063;50.892;4.702;2022-10-17T01:46:39;5.67;;;4.87;;
30247;SDS011;17063;50.892;4.702;2022-10-17T01:49:09;13.07;;;5.27;;
30247;SDS011;17063;50.892;4.702;2022-10-17T01:51:46;7.10;;;4.83;;
30247;SDS011;17063;50.892;4.702;2022-10-17T01:54:17;8.03;;;4.83;;
30247;SDS011;17063;50.892;4.702;2022-10-17T01:56:48;8.63;;;5.17;;
30247;SDS011;17063;50.892;4.702;2022-10-17T01:59:18;20.83;;;5.13;;
30247;SDS011;17063;50.892;4.702;2022-10-17T02:02:08;7.07;;;4.50;;
30247;SDS011;17063;50.892;4.702;2022-10-17T02:04:35;4.97;;;4.30;;
30247;SDS011;17063;50.892;4.702;2022-10-17T02:07:09;8.00;;;4.70;;
30247;SDS011;17063;50.892;4.702;2022-10-17T02:09:38;9.43;;;4.43;;
30247;SDS011;17063;50.892;4.702;2022-10-17T02:22:50;6.63;;;4.27;;
30247;SDS011;17063;50.892;4.702;2022-10-17T02:25:37;4.50;;;4.00;;
30247;SDS011;17063;50.892;4.702;2022-10-17T02:30:54;6.50;;;4.63;;
30247;SDS011;17063;50.892;4.702;2022-10-17T02:33:28;5.13;;;4.07;;
30247;SDS011;17063;50.892;4.702;2022-10-17T02:36:06;7.57;;;4.30;;
30247;SDS011;17063;50.892;4.702;2022-10-17T02:38:36;5.90;;;4.20;;
30247;SDS011;17063;50.892;4.702;2022-10-17T02:41:06;4.67;;;4.10;;
30247;SDS011;17063;50.892;4.702;2022-10-17T02:43:35;6.67;;;4.00;;
30247;SDS011;17063;50.892;4.702;2022-10-17T02:46:03;4.77;;;4.27;;
30247;SDS011;17063;50.892;4.702;2022-10-17T02:48:35;5.33;;;4.10;;
30247;SDS011;17063;50.892;4.702;2022-10-17T02:53:49;4.37;;;3.93;;
30247;SDS011;17063;50.892;4.702;2022-10-17T02:56:21;5.27;;;3.77;;
30247;SDS011;17063;50.892;4.702;2022-10-17T02:58:49;6.97;;;3.93;;
30247;SDS011;17063;50.892;4.702;2022-10-17T03:01:19;12.77;;;4.90;;
30247;SDS011;17063;50.892;4.702;2022-10-17T03:03:46;6.07;;;4.43;;
30247;SDS011;17063;50.892;4.702;2022-10-17T03:06:13;4.53;;;4.13;;
30247;SDS011;17063;50.892;4.702;2022-10-17T03:08:39;9.73;;;4.60;;
30247;SDS011;17063;50.892;4.702;2022-10-17T03:11:06;9.73;;;4.63;;
30247;SDS011;17063;50.892;4.702;2022-10-17T03:13:33;7.53;;;4.33;;
30247;SDS011;17063;50.892;4.702;2022-10-17T03:16:05;9.83;;;4.40;;
30247;SDS011;17063;50.892;4.702;2022-10-17T03:18:32;5.70;;;5.10;;
30247;SDS011;17063;50.892;4.702;2022-10-17T03:21:00;7.13;;;5.13;;
30247;SDS011;17063;50.892;4.702;2022-10-17T03:23:27;5.40;;;4.70;;
30247;SDS011;17063;50.892;4.702;2022-10-17T03:25:54;5.57;;;4.23;;
30247;SDS011;17063;50.892;4.702;2022-10-17T03:28:20;5.80;;;4.43;;
30247;SDS011;17063;50.892;4.702;2022-10-17T03:30:48;7.47;;;4.50;;
30247;SDS011;17063;50.892;4.702;2022-10-17T03:33:14;5.20;;;4.70;;
30247;SDS011;17063;50.892;4.702;2022-10-17T03:35:41;6.23;;;4.47;;
30247;SDS011;17063;50.892;4.702;2022-10-17T03:38:08;5.03;;;4.27;;
30247;SDS011;17063;50.892;4.702;2022-10-17T03:40:35;7.73;;;4.83;;
30247;SDS011;17063;50.892;4.702;2022-10-17T03:43:03;8.37;;;4.17;;
30247;SDS011;17063;50.892;4.702;2022-10-17T03:45:30;5.50;;;4.80;;
30247;SDS011;17063;50.892;4.702;2022-10-17T03:47:58;6.90;;;4.27;;
30247;SDS011;17063;50.892;4.702;2022-10-17T03:50:25;8.87;;;4.80;;
30247;SDS011;17063;50.892;4.702;2022-10-17T03:52:52;9.53;;;4.47;;
30247;SDS011;17063;50.892;4.702;2022-10-17T03:55:19;7.27;;;4.87;;
30247;SDS011;17063;50.892;4.702;2022-10-17T03:57:46;7.23;;;4.13;;
30247;SDS011;17063;50.892;4.702;2022-10-17T04:00:14;7.20;;;4.57;;
30247;SDS011;17063;50.892;4.702;2022-10-17T04:02:41;6.90;;;3.90;;
30247;SDS011;17063;50.892;4.702;2022-10-17T04:05:13;8.37;;;4.63;;
30247;SDS011;17063;50.892;4.702;2022-10-17T04:07:40;7.57;;;4.40;;
30247;SDS011;17063;50.892;4.702;2022-10-17T04:10:09;8.57;;;4.70;;
30247;SDS011;17063;50.892;4.702;2022-10-17T04:12:36;6.93;;;4.27;;
30247;SDS011;17063;50.892;4.702;2022-10-17T04:15:04;11.47;;;4.20;;
30247;SDS011;17063;50.892;4.702;2022-10-17T04:17:31;13.63;;;4.27;;
30247;SDS011;17063;50.892;4.702;2022-10-17T04:20:05;5.90;;;4.00;;
30247;SDS011;17063;50.892;4.702;2022-10-17T04:22:32;11.93;;;4.60;;
30247;SDS011;17063;50.892;4.702;2022-10-17T04:25:00;15.27;;;4.40;;
30247;SDS011;17063;50.892;4.702;2022-10-17T04:27:32;12.93;;;4.63;;
30247;SDS011;17063;50.892;4.702;2022-10-17T04:29:59;5.97;;;4.27;;
30247;SDS011;17063;50.892;4.702;2022-10-17T04:32:27;6.37;;;4.47;;
30247;SDS011;17063;50.892;4.702;2022-10-17T04:35:18;6.90;;;4.33;;
30247;SDS011;17063;50.892;4.702;2022-10-17T04:37:50;6.43;;;4.33;;
30247;SDS011;17063;50.892;4.702;2022-10-17T04:40:18;7.27;;;3.97;;
30247;SDS011;17063;50.892;4.702;2022-10-17T04:42:46;6.03;;;4.30;;
30247;SDS011;17063;50.892;4.702;2022-10-17T04:45:17;9.37;;;4.43;;
30247;SDS011;17063;50.892;4.702;2022-10-17T04:47:46;9.57;;;5.10;;
30247;SDS011;17063;50.892;4.702;2022-10-17T04:50:13;7.40;;;4.17;;
30247;SDS011;17063;50.892;4.702;2022-10-17T04:52:40;6.33;;;4.70;;
30247;SDS011;17063;50.892;4.702;2022-10-17T04:55:07;6.63;;;4.60;;
30247;SDS011;17063;50.892;4.702;2022-10-17T04:57:34;4.97;;;4.43;;
30247;SDS011;17063;50.892;4.702;2022-10-17T05:00:08;11.70;;;4.73;;
30247;SDS011;17063;50.892;4.702;2022-10-17T05:03:02;8.37;;;4.70;;
30247;SDS011;17063;50.892;4.702;2022-10-17T05:05:29;5.40;;;4.43;;
30247;SDS011;17063;50.892;4.702;2022-10-17T05:07:56;6.93;;;4.13;;
30247;SDS011;17063;50.892;4.702;2022-10-17T05:10:27;6.63;;;4.40;;
30247;SDS011;17063;50.892;4.702;2022-10-17T05:12:54;7.23;;;4.57;;
30247;SDS011;17063;50.892;4.702;2022-10-17T05:15:24;7.07;;;4.67;;
30247;SDS011;17063;50.892;4.702;2022-10-17T05:17:53;7.37;;;4.17;;
30247;SDS011;17063;50.892;4.702;2022-10-17T05:20:22;13.03;;;4.60;;
30247;SDS011;17063;50.892;4.702;2022-10-17T05:22:49;9.83;;;4.40;;
30247;SDS011;17063;50.892;4.702;2022-10-17T05:25:17;9.20;;;4.50;;
30247;SDS011;17063;50.892;4.702;2022-10-17T05:27:43;8.57;;;3.83;;
30247;SDS011;17063;50.892;4.702;2022-10-17T05:30:10;5.53;;;3.73;;
30247;SDS011;17063;50.892;4.702;2022-10-17T05:32:39;7.03;;;4.30;;
30247;SDS011;17063;50.892;4.702;2022-10-17T05:35:06;5.33;;;4.50;;
30247;SDS011;17063;50.892;4.702;2022-10-17T05:37:35;5.83;;;4.10;;
30247;SDS011;17063;50.892;4.702;2022-10-17T05:40:03;5.90;;;3.97;;
30247;SDS011;17063;50.892;4.702;2022-10-17T05:42:30;11.13;;;4.10;;
30247;SDS011;17063;50.892;4.702;2022-10-17T05:44:58;7.90;;;3.90;;
30247;SDS011;17063;50.892;4.702;2022-10-17T05:47:25;6.20;;;4.47;;
30247;SDS011;17063;50.892;4.702;2022-10-17T05:49:52;6.67;;;4.23;;
30247;SDS011;17063;50.892;4.702;2022-10-17T05:52:25;9.77;;;4.07;;
30247;SDS011;17063;50.892;4.702;2022-10-17T05:55:01;8.33;;;4.03;;
30247;SDS011;17063;50.892;4.702;2022-10-17T05:57:30;6.90;;;4.07;;
30247;SDS011;17063;50.892;4.702;2022-10-17T05:59:57;6.57;;;4.00;;
30247;SDS011;17063;50.892;4.702;2022-10-17T06:02:23;9.57;;;4.10;;
30247;SDS011;17063;50.892;4.702;2022-10-17T06:04:50;11.67;;;4.50;;
30247;SDS011;17063;50.892;4.702;2022-10-17T06:07:19;14.27;;;4.07;;
30247;SDS011;17063;50.892;4.702;2022-10-17T06:09:47;7.57;;;4.00;;
30247;SDS011;17063;50.892;4.702;2022-10-17T06:12:13;6.57;;;4.10;;
30247;SDS011;17063;50.892;4.702;2022-10-17T06:14:41;4.33;;;3.90;;
30247;SDS011;17063;50.892;4.702;2022-10-17T06:17:10;7.53;;;4.40;;
30247;SDS011;17063;50.892;4.702;2022-10-17T06:19:42;7.90;;;4.97;;
30247;SDS011;17063;50.892;4.702;2022-10-17T06:22:12;10.77;;;5.40;;
30247;SDS011;17063;50.892;4.702;2022-10-17T06:24:39;8.33;;;4.27;;
30247;SDS011;17063;50.892;4.702;2022-10-17T06:27:08;11.77;;;3.97;;
30247;SDS011;17063;50.892;4.702;2022-10-17T06:29:39;5.07;;;3.60;;
30247;SDS011;17063;50.892;4.702;2022-10-17T06:32:06;5.67;;;3.90;;
30247;SDS011;17063;50.892;4.702;2022-10-17T06:34:39;4.20;;;3.80;;
30247;SDS011;17063;50.892;4.702;2022-10-17T06:37:06;12.67;;;4.60;;
30247;SDS011;17063;50.892;4.702;2022-10-17T06:39:34;8.83;;;3.73;;
30247;SDS011;17063;50.892;4.702;2022-10-17T06:42:05;6.43;;;3.43;;
30247;SDS011;17063;50.892;4.702;2022-10-17T06:45:04;10.13;;;4.13;;
30247;SDS011;17063;50.892;4.702;2022-10-17T06:47:41;11.80;;;4.17;;
30247;SDS011;17063;50.892;4.702;2022-10-17T06:50:25;6.53;;;3.57;;
30247;SDS011;17063;50.892;4.702;2022-10-17T06:53:18;14.03;;;4.00;;
30247;SDS011;17063;50.892;4.702;2022-10-17T06:55:51;9.27;;;3.93;;
30247;SDS011;17063;50.892;4.702;2022-10-17T06:58:28;9.90;;;3.80;;
30247;SDS011;17063;50.892;4.702;2022-10-17T07:01:10;5.37;;;3.53;;
30247;SDS011;17063;50.892;4.702;2022-10-17T07:03:39;9.57;;;3.87;;
30247;SDS011;17063;50.892;4.702;2022-10-17T07:06:06;9.07;;;3.70;;
30247;SDS011;17063;50.892;4.702;2022-10-17T07:08:33;9.90;;;3.80;;
30247;SDS011;17063;50.892;4.702;2022-10-17T07:11:12;9.30;;;3.27;;
30247;SDS011;17063;50.892;4.702;2022-10-17T07:13:41;8.00;;;3.73;;
30247;SDS011;17063;50.892;4.702;2022-10-17T07:16:09;10.40;;;3.43;;
30247;SDS011;17063;50.892;4.702;2022-10-17T07:18:38;8.00;;;3.53;;
30247;SDS011;17063;50.892;4.702;2022-10-17T07:21:06;6.23;;;3.50;;
30247;SDS011;17063;50.892;4.702;2022-10-17T07:23:35;6.47;;;3.77;;
30247;SDS011;17063;50.892;4.702;2022-10-17T07:26:04;8.70;;;3.40;;
30247;SDS011;17063;50.892;4.702;2022-10-17T07:28:37;8.30;;;3.53;;
30247;SDS011;17063;50.892;4.702;2022-10-17T07:31:18;4.37;;;3.30;;
30247;SDS011;17063;50.892;4.702;2022-10-17T07:33:50;5.60;;;3.20;;
30247;SDS011;17063;50.892;4.702;2022-10-17T07:36:16;6.53;;;3.97;;
30247;SDS011;17063;50.892;4.702;2022-10-17T07:38:44;6.03;;;3.13;;
30247;SDS011;17063;50.892;4.702;2022-10-17T07:41:12;9.00;;;3.57;;
30247;SDS011;17063;50.892;4.702;2022-10-17T07:43:51;12.10;;;3.77;;
30247;SDS011;17063;50.892;4.702;2022-10-17T07:46:23;3.73;;;2.93;;
30247;SDS011;17063;50.892;4.702;2022-10-17T07:48:53;3.70;;;3.33;;
30247;SDS011;17063;50.892;4.702;2022-10-17T07:51:21;11.97;;;3.30;;
30247;SDS011;17063;50.892;4.702;2022-10-17T07:53:47;7.00;;;4.00;;
30247;SDS011;17063;50.892;4.702;2022-10-17T07:56:15;7.10;;;3.90;;
30247;SDS011;17063;50.892;4.702;2022-10-17T07:58:48;7.43;;;3.30;;
30247;SDS011;17063;50.892;4.702;2022-10-17T08:01:21;5.77;;;3.47;;
30247;SDS011;17063;50.892;4.702;2022-10-17T08:03:49;4.60;;;3.30;;
30247;SDS011;17063;50.892;4.702;2022-10-17T08:06:35;6.20;;;2.90;;
30247;SDS011;17063;50.892;4.702;2022-10-17T08:09:07;7.00;;;3.87;;
30247;SDS011;17063;50.892;4.702;2022-10-17T08:11:40;4.63;;;3.63;;
30247;SDS011;17063;50.892;4.702;2022-10-17T08:14:09;6.20;;;3.30;;
30247;SDS011;17063;50.892;4.702;2022-10-17T08:16:37;6.93;;;3.97;;
30247;SDS011;17063;50.892;4.702;2022-10-17T08:19:05;6.93;;;3.70;;
30247;SDS011;17063;50.892;4.702;2022-10-17T08:21:35;9.83;;;3.50;;
30247;SDS011;17063;50.892;4.702;2022-10-17T08:24:06;6.33;;;3.80;;
30247;SDS011;17063;50.892;4.702;2022-10-17T08:26:35;11.47;;;3.97;;
30247;SDS011;17063;50.892;4.702;2022-10-17T08:29:12;11.13;;;3.93;;
30247;SDS011;17063;50.892;4.702;2022-10-17T08:31:46;14.07;;;4.40;;
30247;SDS011;17063;50.892;4.702;2022-10-17T08:34:27;17.83;;;5.67;;
30247;SDS011;17063;50.892;4.702;2022-10-17T08:41:38;13.37;;;4.80;;
30247;SDS011;17063;50.892;4.702;2022-10-17T08:47:37;10.50;;;5.00;;
30247;SDS011;17063;50.892;4.702;2022-10-17T08:50:13;6.97;;;4.33;;
30247;SDS011;17063;50.892;4.702;2022-10-17T08:56:39;8.27;;;4.30;;
30247;SDS011;17063;50.892;4.702;2022-10-17T08:59:22;7.30;;;4.80;;
30247;SDS011;17063;50.892;4.702;2022-10-17T09:19:16;11.17;;;4.60;;
30247;SDS011;17063;50.892;4.702;2022-10-17T09:24:40;10.27;;;4.27;;
30247;SDS011;17063;50.892;4.702;2022-10-17T09:27:14;6.90;;;4.73;;
30247;SDS011;17063;50.892;4.702;2022-10-17T09:29:51;8.93;;;4.10;;
30247;SDS011;17063;50.892;4.702;2022-10-17T09:32:22;7.80;;;4.57;;
30247;SDS011;17063;50.892;4.702;2022-10-17T09:34:50;12.60;;;4.53;;
30247;SDS011;17063;50.892;4.702;2022-10-17T09:37:18;11.00;;;5.10;;
30247;SDS011;17063;50.892;4.702;2022-10-17T09:39:49;10.83;;;4.93;;
30247;SDS011;17063;50.892;4.702;2022-10-17T09:42:20;7.60;;;4.87;;
30247;SDS011;17063;50.892;4.702;2022-10-17T09:45:35;12.70;;;5.10;;
30247;SDS011;17063;50.892;4.702;2022-10-17T09:50:30;8.73;;;4.50;;
30247;SDS011;17063;50.892;4.702;2022-10-17T09:53:11;8.20;;;4.93;;
30247;SDS011;17063;50.892;4.702;2022-10-17T09:56:00;12.57;;;5.07;;
30247;SDS011;17063;50.892;4.702;2022-10-17T09:58:39;7.60;;;4.67;;
30247;SDS011;17063;50.892;4.702;2022-10-17T10:01:15;11.10;;;5.30;;
30247;SDS011;17063;50.892;4.702;2022-10-17T10:06:34;11.07;;;5.43;;
30247;SDS011;17063;50.892;4.702;2022-10-17T10:09:03;8.50;;;5.20;;
30247;SDS011;17063;50.892;4.702;2022-10-17T10:11:46;13.10;;;5.10;;
30247;SDS011;17063;50.892;4.702;2022-10-17T10:17:02;10.20;;;4.90;;
30247;SDS011;17063;50.892;4.702;2022-10-17T10:19:32;7.83;;;4.97;;
30247;SDS011;17063;50.892;4.702;2022-10-17T10:22:04;10.30;;;5.10;;
30247;SDS011;17063;50.892;4.702;2022-10-17T10:24:34;10.60;;;4.70;;
30247;SDS011;17063;50.892;4.702;2022-10-17T10:27:01;8.57;;;4.70;;
30247;SDS011;17063;50.892;4.702;2022-10-17T10:29:33;9.47;;;4.67;;
30247;SDS011;17063;50.892;4.702;2022-10-17T10:37:50;6.27;;;4.43;;
30247;SDS011;17063;50.892;4.702;2022-10-17T10:40:32;7.87;;;4.40;;
30247;SDS011;17063;50.892;4.702;2022-10-17T10:43:03;6.57;;;4.40;;
30247;SDS011;17063;50.892;4.702;2022-10-17T10:54:23;7.47;;;5.60;;
30247;SDS011;17063;50.892;4.702;2022-10-17T10:56:58;9.07;;;5.20;;
30247;SDS011;17063;50.892;4.702;2022-10-17T10:59:37;9.00;;;5.37;;
30247;SDS011;17063;50.892;4.702;2022-10-17T11:02:18;9.43;;;5.30;;
30247;SDS011;17063;50.892;4.702;2022-10-17T11:04:54;9.57;;;5.37;;
30247;SDS011;17063;50.892;4.702;2022-10-17T11:07:25;9.43;;;4.70;;
30247;SDS011;17063;50.892;4.702;2022-10-17T11:10:04;11.27;;;4.83;;
30247;SDS011;17063;50.892;4.702;2022-10-17T11:12:54;7.60;;;5.37;;
30247;SDS011;17063;50.892;4.702;2022-10-17T11:17:57;10.17;;;5.97;;
30247;SDS011;17063;50.892;4.702;2022-10-17T11:20:28;13.23;;;5.63;;
30247;SDS011;17063;50.892;4.702;2022-10-17T11:23:45;7.83;;;5.33;;
30247;SDS011;17063;50.892;4.702;2022-10-17T11:26:01;6.70;;;4.67;;
30247;SDS011;17063;50.892;4.702;2022-10-17T11:28:31;12.43;;;5.97;;
30247;SDS011;17063;50.892;4.702;2022-10-17T11:31:16;10.50;;;5.13;;
30247;SDS011;17063;50.892;4.702;2022-10-17T11:33:51;10.43;;;5.20;;
30247;SDS011;17063;50.892;4.702;2022-10-17T11:36:30;10.10;;;5.23;;
30247;SDS011;17063;50.892;4.702;2022-10-17T11:39:06;9.37;;;4.60;;
30247;SDS011;17063;50.892;4.702;2022-10-17T11:46:50;15.23;;;4.53;;
30247;SDS011;17063;50.892;4.702;2022-10-17T11:49:22;5.47;;;3.93;;
30247;SDS011;17063;50.892;4.702;2022-10-17T12:12:08;8.83;;;4.33;;
30247;SDS011;17063;50.892;4.702;2022-10-17T12:14:37;14.97;;;4.23;;
30247;SDS011;17063;50.892;4.702;2022-10-17T12:25:27;14.40;;;4.70;;
30247;SDS011;17063;50.892;4.702;2022-10-17T12:34:13;6.87;;;4.27;;
30247;SDS011;17063;50.892;4.702;2022-10-17T12:36:41;7.80;;;4.50;;
30247;SDS011;17063;50.892;4.702;2022-10-17T12:46:41;7.83;;;4.63;;
30247;SDS011;17063;50.892;4.702;2022-10-17T12:54:50;7.70;;;5.00;;
30247;SDS011;17063;50.892;4.702;2022-10-17T12:57:53;8.90;;;4.80;;
30247;SDS011;17063;50.892;4.702;2022-10-17T13:00:30;10.07;;;4.80;;
30247;SDS011;17063;50.892;4.702;2022-10-17T13:03:05;11.67;;;4.27;;
30247;SDS011;17063;50.892;4.702;2022-10-17T13:05:40;13.43;;;4.37;;
30247;SDS011;17063;50.892;4.702;2022-10-17T13:08:14;10.30;;;4.27;;
30247;SDS011;17063;50.892;4.702;2022-10-17T13:10:44;10.00;;;4.13;;
30247;SDS011;17063;50.892;4.702;2022-10-17T13:16:30;8.33;;;4.73;;
30247;SDS011;17063;50.892;4.702;2022-10-17T13:18:59;7.30;;;4.30;;
30247;SDS011;17063;50.892;4.702;2022-10-17T13:21:27;11.37;;;5.27;;
30247;SDS011;17063;50.892;4.702;2022-10-17T13:23:54;9.73;;;5.17;;
30247;SDS011;17063;50.892;4.702;2022-10-17T13:26:25;10.87;;;5.00;;
30247;SDS011;17063;50.892;4.702;2022-10-17T13:31:40;9.30;;;5.23;;
30247;SDS011;17063;50.892;4.702;2022-10-17T13:34:20;10.23;;;5.53;;
30247;SDS011;17063;50.892;4.702;2022-10-17T13:36:58;11.33;;;5.50;;
30247;SDS011;17063;50.892;4.702;2022-10-17T13:39:28;12.87;;;6.50;;
30247;SDS011;17063;50.892;4.702;2022-10-17T13:42:26;11.13;;;5.33;;
30247;SDS011;17063;50.892;4.702;2022-10-17T13:44:55;7.60;;;5.27;;
30247;SDS011;17063;50.892;4.702;2022-10-17T13:47:24;13.40;;;5.27;;
30247;SDS011;17063;50.892;4.702;2022-10-17T13:49:53;13.67;;;5.50;;
30247;SDS011;17063;50.892;4.702;2022-10-17T13:52:22;12.57;;;5.50;;
30247;SDS011;17063;50.892;4.702;2022-10-17T13:54:51;11.20;;;5.20;;
30247;SDS011;17063;50.892;4.702;2022-10-17T13:57:23;15.47;;;5.10;;
30247;SDS011;17063;50.892;4.702;2022-10-17T13:59:58;12.17;;;5.03;;
30247;SDS011;17063;50.892;4.702;2022-10-17T14:02:28;7.30;;;4.97;;
30247;SDS011;17063;50.892;4.702;2022-10-17T14:07:52;7.07;;;4.60;;
30247;SDS011;17063;50.892;4.702;2022-10-17T14:10:47;5.80;;;3.90;;
30247;SDS011;17063;50.892;4.702;2022-10-17T14:13:20;9.70;;;4.73;;
30247;SDS011;17063;50.892;4.702;2022-10-17T14:15:55;4.27;;;3.87;;
30247;SDS011;17063;50.892;4.702;2022-10-17T14:18:35;6.63;;;4.80;;
30247;SDS011;17063;50.892;4.702;2022-10-17T14:21:04;8.00;;;3.73;;
30247;SDS011;17063;50.892;4.702;2022-10-17T14:23:52;9.57;;;4.80;;
30247;SDS011;17063;50.892;4.702;2022-10-17T14:26:49;5.43;;;3.90;;
30247;SDS011;17063;50.892;4.702;2022-10-17T14:29:26;9.23;;;4.47;;
30247;SDS011;17063;50.892;4.702;2022-10-17T14:32:01;5.70;;;3.67;;
30247;SDS011;17063;50.892;4.702;2022-10-17T14:34:38;10.47;;;4.10;;
30247;SDS011;17063;50.892;4.702;2022-10-17T14:37:10;9.33;;;3.67;;
30247;SDS011;17063;50.892;4.702;2022-10-17T14:39:58;7.47;;;4.00;;
30247;SDS011;17063;50.892;4.702;2022-10-17T14:42:26;5.60;;;4.00;;
30247;SDS011;17063;50.892;4.702;2022-10-17T14:44:53;8.00;;;4.17;;
30247;SDS011;17063;50.892;4.702;2022-10-17T14:47:25;6.70;;;3.97;;
30247;SDS011;17063;50.892;4.702;2022-10-17T14:52:38;7.77;;;3.13;;
30247;SDS011;17063;50.892;4.702;2022-10-17T14:55:20;5.67;;;3.53;;
30247;SDS011;17063;50.892;4.702;2022-10-17T14:57:48;5.33;;;3.30;;
30247;SDS011;17063;50.892;4.702;2022-10-17T15:00:16;7.40;;;3.83;;
30247;SDS011;17063;50.892;4.702;2022-10-17T15:02:45;6.40;;;3.53;;
30247;SDS011;17063;50.892;4.702;2022-10-17T15:05:13;8.93;;;3.73;;
30247;SDS011;17063;50.892;4.702;2022-10-17T15:07:41;5.40;;;4.07;;
30247;SDS011;17063;50.892;4.702;2022-10-17T15:10:30;7.97;;;4.40;;
30247;SDS011;17063;50.892;4.702;2022-10-17T15:13:01;9.27;;;3.97;;
30247;SDS011;17063;50.892;4.702;2022-10-17T15:15:48;6.33;;;3.97;;
30247;SDS011;17063;50.892;4.702;2022-10-17T15:18:17;8.77;;;3.37;;
30247;SDS011;17063;50.892;4.702;2022-10-17T15:20:44;6.40;;;3.30;;
30247;SDS011;17063;50.892;4.702;2022-10-17T15:23:11;6.63;;;3.97;;
30247;SDS011;17063;50.892;4.702;2022-10-17T15:25:38;16.60;;;5.17;;
30247;SDS011;17063;50.892;4.702;2022-10-17T15:28:13;5.57;;;3.20;;
30247;SDS011;17063;50.892;4.702;2022-10-17T15:30:40;10.63;;;3.40;;
30247;SDS011;17063;50.892;4.702;2022-10-17T15:33:07;5.93;;;3.43;;
30247;SDS011;17063;50.892;4.702;2022-10-17T15:35:34;3.60;;;3.23;;
30247;SDS011;17063;50.892;4.702;2022-10-17T15:38:02;8.93;;;3.37;;
30247;SDS011;17063;50.892;4.702;2022-10-17T15:40:31;4.60;;;2.87;;
30247;SDS011;17063;50.892;4.702;2022-10-17T15:42:57;7.27;;;3.70;;
30247;SDS011;17063;50.892;4.702;2022-10-17T15:45:24;8.20;;;3.50;;
30247;SDS011;17063;50.892;4.702;2022-10-17T15:47:52;11.13;;;4.13;;
30247;SDS011;17063;50.892;4.702;2022-10-17T15:50:24;5.47;;;3.80;;
30247;SDS011;17063;50.892;4.702;2022-10-17T15:52:56;4.53;;;3.97;;
30247;SDS011;17063;50.892;4.702;2022-10-17T15:55:25;8.53;;;4.13;;
30247;SDS011;17063;50.892;4.702;2022-10-17T15:57:53;7.17;;;4.10;;
30247;SDS011;17063;50.892;4.702;2022-10-17T16:00:22;8.87;;;4.10;;
30247;SDS011;17063;50.892;4.702;2022-10-17T16:02:49;5.23;;;4.10;;
30247;SDS011;17063;50.892;4.702;2022-10-17T16:05:17;11.97;;;4.33;;
30247;SDS011;17063;50.892;4.702;2022-10-17T16:07:54;8.47;;;4.23;;
30247;SDS011;17063;50.892;4.702;2022-10-17T16:10:23;6.73;;;3.87;;
30247;SDS011;17063;50.892;4.702;2022-10-17T16:12:53;7.67;;;3.80;;
30247;SDS011;17063;50.892;4.702;2022-10-17T16:15:21;5.03;;;4.13;;
30247;SDS011;17063;50.892;4.702;2022-10-17T16:17:55;5.50;;;4.10;;
30247;SDS011;17063;50.892;4.702;2022-10-17T16:20:24;11.53;;;4.60;;
30247;SDS011;17063;50.892;4.702;2022-10-17T16:22:51;6.93;;;4.20;;
30247;SDS011;17063;50.892;4.702;2022-10-17T16:25:26;8.40;;;4.27;;
30247;SDS011;17063;50.892;4.702;2022-10-17T16:27:56;9.93;;;4.73;;
30247;SDS011;17063;50.892;4.702;2022-10-17T16:30:26;7.73;;;5.27;;
30247;SDS011;17063;50.892;4.702;2022-10-17T16:32:55;7.57;;;4.20;;
30247;SDS011;17063;50.892;4.702;2022-10-17T16:35:23;8.43;;;5.13;;
30247;SDS011;17063;50.892;4.702;2022-10-17T16:37:58;7.03;;;5.73;;
30247;SDS011;17063;50.892;4.702;2022-10-17T16:40:25;15.90;;;7.00;;
30247;SDS011;17063;50.892;4.702;2022-10-17T16:42:52;11.83;;;7.20;;
30247;SDS011;17063;50.892;4.702;2022-10-17T16:45:20;12.07;;;6.60;;
30247;SDS011;17063;50.892;4.702;2022-10-17T16:47:47;9.50;;;5.60;;
30247;SDS011;17063;50.892;4.702;2022-10-17T16:50:15;9.40;;;5.63;;
30247;SDS011;17063;50.892;4.702;2022-10-17T16:52:42;8.27;;;5.20;;
30247;SDS011;17063;50.892;4.702;2022-10-17T16:55:09;12.50;;;5.20;;
30247;SDS011;17063;50.892;4.702;2022-10-17T16:57:36;11.70;;;5.40;;
30247;SDS011;17063;50.892;4.702;2022-10-17T17:00:04;10.00;;;5.30;;
30247;SDS011;17063;50.892;4.702;2022-10-17T17:02:32;9.63;;;5.47;;
30247;SDS011;17063;50.892;4.702;2022-10-17T17:05:03;10.13;;;5.10;;
30247;SDS011;17063;50.892;4.702;2022-10-17T17:07:31;11.60;;;4.87;;
30247;SDS011;17063;50.892;4.702;2022-10-17T17:09:59;10.67;;;5.53;;
30247;SDS011;17063;50.892;4.702;2022-10-17T17:12:25;7.43;;;5.47;;
30247;SDS011;17063;50.892;4.702;2022-10-17T17:14:52;13.33;;;5.47;;
30247;SDS011;17063;50.892;4.702;2022-10-17T17:17:19;9.13;;;4.97;;
30247;SDS011;17063;50.892;4.702;2022-10-17T17:20:06;8.50;;;5.00;;
30247;SDS011;17063;50.892;4.702;2022-10-17T17:22:33;8.60;;;4.50;;
30247;SDS011;17063;50.892;4.702;2022-10-17T17:25:00;8.17;;;4.20;;
30247;SDS011;17063;50.892;4.702;2022-10-17T17:27:27;9.93;;;4.80;;
30247;SDS011;17063;50.892;4.702;2022-10-17T17:29:55;7.97;;;4.23;;
30247;SDS011;17063;50.892;4.702;2022-10-17T17:32:21;9.60;;;4.43;;
30247;SDS011;17063;50.892;4.702;2022-10-17T17:34:50;7.10;;;3.93;;
30247;SDS011;17063;50.892;4.702;2022-10-17T17:37:17;7.60;;;4.10;;
30247;SDS011;17063;50.892;4.702;2022-10-17T17:39:44;10.40;;;3.50;;